createdAt,value
2023-01-29T00:00:10.769Z,7.53
2023-01-29T00:02:41.056Z,8.35
2023-01-29T00:05:26.096Z,7.38
2023-01-29T00:07:55.726Z,8.15
2023-01-29T00:10:24.331Z,7.93
2023-01-29T00:12:52.058Z,6.72
2023-01-29T00:15:21.023Z,7.13
2023-01-29T00:17:48.497Z,8.10
2023-01-29T00:20:16.870Z,8.38
2023-01-29T00:22:44.635Z,9.68
2023-01-29T00:25:12.420Z,7.28
2023-01-29T00:27:40.347Z,7.47
2023-01-29T00:30:19.808Z,7.18
2023-01-29T00:32:47.956Z,9.07
2023-01-29T00:35:15.440Z,8.13
2023-01-29T00:37:42.965Z,9.30
2023-01-29T00:40:12.016Z,8.07
2023-01-29T00:42:58.356Z,7.18
2023-01-29T00:45:25.926Z,8.43
2023-01-29T00:47:53.428Z,8.77
2023-01-29T00:50:22.318Z,8.20
2023-01-29T00:52:51.998Z,5.55
2023-01-29T00:55:19.693Z,9.27
2023-01-29T00:57:47.593Z,7.30
2023-01-29T01:00:18.263Z,9.85
2023-01-29T01:03:05.323Z,10.07
2023-01-29T01:05:33.223Z,4.78
2023-01-29T01:08:00.711Z,6.75
2023-01-29T01:10:33.529Z,7.85
2023-01-29T01:13:04.390Z,7.57
2023-01-29T01:15:37.783Z,7.45
2023-01-29T01:18:06.355Z,7.57
2023-01-29T01:20:35.656Z,8.57
2023-01-29T01:23:03.690Z,6.88
2023-01-29T01:25:31.401Z,9.77
2023-01-29T01:30:27.895Z,10.27
2023-01-29T01:32:56.319Z,6.47
2023-01-29T01:35:23.814Z,8.40
2023-01-29T01:37:51.410Z,7.80
2023-01-29T01:40:21.651Z,8.82
2023-01-29T01:42:57.764Z,7.53
2023-01-29T01:45:36.579Z,11.63
2023-01-29T01:48:13.237Z,9.75
2023-01-29T01:50:49.814Z,8.73
2023-01-29T01:53:23.056Z,9.70
2023-01-29T01:55:58.159Z,10.15
2023-01-29T01:58:31.082Z,8.77
2023-01-29T02:00:59.329Z,9.68
2023-01-29T02:03:50.419Z,9.32
2023-01-29T02:06:36.805Z,7.85
2023-01-29T02:09:27.639Z,7.32
2023-01-29T02:11:55.828Z,8.13
2023-01-29T02:14:23.594Z,7.45
2023-01-29T02:16:51.607Z,10.32
2023-01-29T02:19:38.639Z,7.90
2023-01-29T02:22:26.004Z,7.43
2023-01-29T02:25:10.109Z,9.82
2023-01-29T02:27:50.165Z,9.40
2023-01-29T02:30:29.021Z,8.75
2023-01-29T02:33:09.642Z,7.60
2023-01-29T02:35:51.146Z,9.85
2023-01-29T02:38:38.852Z,9.63
2023-01-29T02:41:23.420Z,7.90
2023-01-29T02:44:14.043Z,9.88
2023-01-29T02:47:00.575Z,9.35
2023-01-29T02:49:48.397Z,9.18
2023-01-29T02:52:29.550Z,9.27
2023-01-29T02:55:05.075Z,8.13
2023-01-29T02:57:37.980Z,9.02
2023-01-29T03:00:17.693Z,10.95
2023-01-29T03:02:55.760Z,11.13
2023-01-29T03:05:45.509Z,8.57
2023-01-29T03:08:18.848Z,9.63
2023-01-29T03:11:02.990Z,8.48
2023-01-29T03:13:41.687Z,7.35
2023-01-29T03:16:34.066Z,9.13
2023-01-29T03:19:26.379Z,7.38
2023-01-29T03:21:59.947Z,9.88
2023-01-29T03:24:57.291Z,9.15
2023-01-29T03:27:57.553Z,8.50
2023-01-29T03:30:47.400Z,9.77
2023-01-29T03:33:46.254Z,10.48
2023-01-29T03:36:38.429Z,7.75
2023-01-29T03:39:12.285Z,9.65
2023-01-29T03:42:12.999Z,9.40
2023-01-29T03:45:06.364Z,9.80
2023-01-29T03:47:46.622Z,12.50
2023-01-29T03:50:21.610Z,10.20
2023-01-29T03:55:58.274Z,11.00
2023-01-29T03:58:40.179Z,9.88
2023-01-29T04:01:42.194Z,9.00
2023-01-29T04:04:40.012Z,8.45
2023-01-29T04:07:18.215Z,8.00
2023-01-29T04:09:51.919Z,7.95
2023-01-29T04:12:27.026Z,8.52
2023-01-29T04:14:56.193Z,7.93
2023-01-29T04:17:33.101Z,9.80
2023-01-29T04:20:21.694Z,9.70
2023-01-29T04:22:51.589Z,8.35
2023-01-29T04:25:26.944Z,9.63
2023-01-29T04:28:09.032Z,7.95
2023-01-29T04:30:47.049Z,7.60
2023-01-29T04:33:29.810Z,9.25
2023-01-29T04:36:24.790Z,8.60
2023-01-29T04:39:05.183Z,9.43
2023-01-29T04:41:43.742Z,9.27
2023-01-29T04:44:23.509Z,8.18
2023-01-29T04:46:59.966Z,11.50
2023-01-29T04:49:34.653Z,9.65
2023-01-29T04:52:15.532Z,9.25
2023-01-29T04:55:30.778Z,7.13
2023-01-29T04:58:06.865Z,8.80
2023-01-29T05:00:39.893Z,10.25
2023-01-29T05:03:09.933Z,9.67
2023-01-29T05:05:40.387Z,8.27
2023-01-29T05:08:09.586Z,10.70
2023-01-29T05:10:37.296Z,8.60
2023-01-29T05:13:09.044Z,8.57
2023-01-29T05:15:50.900Z,10.00
2023-01-29T05:18:18.449Z,7.45
2023-01-29T05:20:47.305Z,9.95
2023-01-29T05:23:18.869Z,9.88
2023-01-29T05:25:47.673Z,10.18
2023-01-29T05:28:18.205Z,10.00
2023-01-29T05:30:48.069Z,10.40
2023-01-29T05:33:22.808Z,10.02
2023-01-29T05:35:50.636Z,9.50
2023-01-29T05:38:19.414Z,10.35
2023-01-29T05:40:47.532Z,10.15
2023-01-29T05:43:23.241Z,10.82
2023-01-29T05:46:01.929Z,14.65
2023-01-29T05:48:30.131Z,9.75
2023-01-29T05:51:01.925Z,10.35
2023-01-29T05:53:29.866Z,12.05
2023-01-29T05:55:59.919Z,10.40
2023-01-29T05:58:27.418Z,10.43
2023-01-29T06:00:54.888Z,11.68
2023-01-29T06:03:22.311Z,10.85
2023-01-29T06:05:49.924Z,11.52
2023-01-29T06:08:17.370Z,10.60
2023-01-29T06:10:44.867Z,10.63
2023-01-29T06:13:12.311Z,10.13
2023-01-29T06:15:41.208Z,11.18
2023-01-29T06:18:08.675Z,10.18
2023-01-29T06:20:36.211Z,9.43
2023-01-29T06:23:03.966Z,9.05
2023-01-29T06:25:31.697Z,11.95
2023-01-29T06:27:59.645Z,12.75
2023-01-29T06:30:28.719Z,10.90
2023-01-29T06:32:59.061Z,11.38
2023-01-29T06:35:26.713Z,11.32
2023-01-29T06:37:54.708Z,10.65
2023-01-29T06:40:22.187Z,10.50
2023-01-29T06:42:49.764Z,12.95
2023-01-29T06:45:17.316Z,11.38
2023-01-29T06:47:44.747Z,9.52
2023-01-29T06:50:12.584Z,10.63
2023-01-29T06:52:40.109Z,8.88
2023-01-29T06:55:08.048Z,9.60
2023-01-29T06:57:35.567Z,10.07
2023-01-29T07:00:03.170Z,9.65
2023-01-29T07:02:31.332Z,10.23
2023-01-29T07:04:58.831Z,11.15
2023-01-29T07:07:26.392Z,10.23
2023-01-29T07:09:53.905Z,10.48
2023-01-29T07:12:21.313Z,8.98
2023-01-29T07:14:48.900Z,8.35
2023-01-29T07:17:16.401Z,7.97
2023-01-29T07:19:43.870Z,9.90
2023-01-29T07:22:11.407Z,7.78
2023-01-29T07:24:38.944Z,7.13
2023-01-29T07:27:06.465Z,8.43
2023-01-29T07:29:33.906Z,8.75
2023-01-29T07:32:01.567Z,9.00
2023-01-29T07:34:29.227Z,10.93
2023-01-29T07:36:57.165Z,10.18
2023-01-29T07:39:24.709Z,9.35
2023-01-29T07:41:52.248Z,9.52
2023-01-29T07:44:22.767Z,10.43
2023-01-29T07:46:50.253Z,9.35
2023-01-29T07:49:17.784Z,11.15
2023-01-29T07:51:45.382Z,12.32
2023-01-29T07:54:12.836Z,11.82
2023-01-29T07:56:40.294Z,13.85
2023-01-29T07:59:07.783Z,11.38
2023-01-29T08:01:35.369Z,10.73
2023-01-29T08:04:02.795Z,12.18
2023-01-29T08:06:30.315Z,15.77
2023-01-29T08:08:57.880Z,9.48
2023-01-29T08:11:25.387Z,12.70
2023-01-29T08:13:53.047Z,13.23
2023-01-29T08:16:20.549Z,14.50
2023-01-29T08:18:49.168Z,13.07
2023-01-29T08:21:16.754Z,14.43
2023-01-29T08:23:44.306Z,10.38
2023-01-29T08:26:11.824Z,16.77
2023-01-29T08:28:39.232Z,17.70
2023-01-29T08:31:17.385Z,12.98
2023-01-29T08:33:44.910Z,12.25
2023-01-29T08:36:12.432Z,15.68
2023-01-29T08:38:40.006Z,13.90
2023-01-29T08:41:08.295Z,19.10
2023-01-29T08:43:37.330Z,14.82
2023-01-29T08:46:09.048Z,14.23
2023-01-29T08:48:36.693Z,13.93
2023-01-29T08:51:04.834Z,14.82
2023-01-29T08:53:32.963Z,13.73
2023-01-29T08:56:00.478Z,14.10
2023-01-29T08:58:28.001Z,15.57
2023-01-29T09:00:55.492Z,13.43
2023-01-29T09:03:23.229Z,13.38
2023-01-29T09:05:50.743Z,13.50
2023-01-29T09:08:18.237Z,11.95
2023-01-29T09:10:45.742Z,13.10
2023-01-29T09:13:13.254Z,14.30
2023-01-29T09:15:40.798Z,14.40
2023-01-29T09:18:08.357Z,15.02
2023-01-29T09:20:38.385Z,12.32
2023-01-29T09:23:08.132Z,14.43
2023-01-29T09:25:36.303Z,13.93
2023-01-29T09:28:04.437Z,12.88
2023-01-29T09:30:33.680Z,13.27
2023-01-29T09:33:01.851Z,12.30
2023-01-29T09:35:29.714Z,8.63
2023-01-29T09:37:57.438Z,11.32
2023-01-29T09:40:43.971Z,11.95
2023-01-29T09:43:26.697Z,12.05
2023-01-29T09:46:01.399Z,12.10
2023-01-29T09:48:33.882Z,11.80
2023-01-29T09:51:07.544Z,9.85
2023-01-29T09:53:47.736Z,10.45
2023-01-29T09:56:21.153Z,12.55
2023-01-29T09:58:49.067Z,9.07
2023-01-29T10:01:34.375Z,8.23
2023-01-29T10:04:23.698Z,5.47
2023-01-29T10:07:20.082Z,4.65
2023-01-29T10:10:14.034Z,6.53
2023-01-29T10:12:54.586Z,5.45
2023-01-29T10:15:39.292Z,5.80
2023-01-29T10:18:15.791Z,5.50
2023-01-29T10:20:54.211Z,2.35
2023-01-29T10:23:29.897Z,4.97
2023-01-29T10:25:57.567Z,3.67
2023-01-29T10:28:46.688Z,3.65
2023-01-29T10:31:17.690Z,3.92
2023-01-29T10:34:02.577Z,3.72
2023-01-29T10:36:45.641Z,2.85
2023-01-29T10:39:20.918Z,3.90
2023-01-29T10:42:19.327Z,2.72
2023-01-29T10:45:05.399Z,3.25
2023-01-29T10:48:08.782Z,4.15
2023-01-29T10:51:14.927Z,4.65
2023-01-29T10:54:02.380Z,2.00
2023-01-29T10:56:57.170Z,2.30
2023-01-29T10:59:54.456Z,3.28
2023-01-29T11:02:23.055Z,2.35
2023-01-29T11:04:50.743Z,3.28
2023-01-29T11:07:20.254Z,2.33
2023-01-29T11:10:03.201Z,3.88
2023-01-29T11:12:33.736Z,3.88
2023-01-29T11:15:23.657Z,5.47
2023-01-29T11:18:17.781Z,4.55
2023-01-29T11:20:46.875Z,4.15
2023-01-29T11:23:29.819Z,4.72
2023-01-29T11:25:59.204Z,4.63
2023-01-29T11:28:50.221Z,3.58
2023-01-29T11:31:20.481Z,3.90
2023-01-29T11:33:49.160Z,4.32
2023-01-29T11:36:28.490Z,5.85
2023-01-29T11:39:17.836Z,5.53
2023-01-29T11:42:04.360Z,5.70
2023-01-29T11:44:41.498Z,4.75
2023-01-29T11:47:14.780Z,4.03
2023-01-29T11:49:51.946Z,3.40
2023-01-29T11:52:23.296Z,5.63
2023-01-29T11:55:01.199Z,5.88
2023-01-29T11:57:35.884Z,5.72
2023-01-29T12:00:07.706Z,8.18
2023-01-29T12:02:42.870Z,6.07
2023-01-29T12:05:20.405Z,9.40
2023-01-29T12:07:51.133Z,5.97
2023-01-29T12:10:41.386Z,6.25
2023-01-29T12:13:20.186Z,6.97
2023-01-29T12:15:49.249Z,6.50
2023-01-29T12:18:35.829Z,8.82
2023-01-29T12:21:23.412Z,8.98
2023-01-29T12:24:18.360Z,8.02
2023-01-29T12:26:55.091Z,8.00
2023-01-29T12:29:33.957Z,7.97
2023-01-29T12:32:19.569Z,7.03
2023-01-29T12:35:03.049Z,6.20
2023-01-29T12:40:16.562Z,8.57
2023-01-29T12:42:53.653Z,6.60
2023-01-29T12:45:24.071Z,10.52
2023-01-29T12:48:02.364Z,7.63
2023-01-29T12:50:33.469Z,8.02
2023-01-29T12:53:24.307Z,7.72
2023-01-29T12:56:03.012Z,9.27
2023-01-29T12:58:42.608Z,8.82
2023-01-29T13:01:17.869Z,7.35
2023-01-29T13:03:59.047Z,8.80
2023-01-29T13:06:31.674Z,8.60
2023-01-29T13:09:03.682Z,7.35
2023-01-29T13:11:55.100Z,9.38
2023-01-29T13:15:19.374Z,9.35
2023-01-29T13:18:18.839Z,11.63
2023-01-29T13:20:49.202Z,9.02
2023-01-29T13:23:23.035Z,8.75
2023-01-29T13:25:54.756Z,9.25
2023-01-29T13:28:26.746Z,11.20
2023-01-29T13:31:18.846Z,9.25
2023-01-29T13:33:55.741Z,10.00
2023-01-29T13:36:29.398Z,12.68
2023-01-29T13:39:06.116Z,7.60
2023-01-29T13:41:42.987Z,15.02
2023-01-29T13:44:37.332Z,9.38
2023-01-29T13:47:20.753Z,11.57
2023-01-29T13:52:45.519Z,11.35
2023-01-29T13:55:19.336Z,12.73
2023-01-29T13:57:47.027Z,10.50
2023-01-29T14:00:25.375Z,11.63
2023-01-29T14:03:02.032Z,12.18
2023-01-29T14:05:32.572Z,10.85
2023-01-29T14:08:06.337Z,10.48
2023-01-29T14:10:39.542Z,11.77
2023-01-29T14:13:19.236Z,10.38
2023-01-29T14:16:07.855Z,12.32
2023-01-29T14:18:37.495Z,13.30
2023-01-29T14:21:28.549Z,9.13
2023-01-29T14:24:18.361Z,13.90
2023-01-29T14:26:49.447Z,11.93
2023-01-29T14:29:34.981Z,13.45
2023-01-29T14:32:20.856Z,13.15
2023-01-29T14:35:03.366Z,13.40
2023-01-29T14:37:43.478Z,10.07
2023-01-29T14:40:20.135Z,12.15
2023-01-29T14:43:02.108Z,16.00
2023-01-29T14:45:38.330Z,14.07
2023-01-29T14:48:11.958Z,13.38
2023-01-29T14:50:46.941Z,12.77
2023-01-29T14:53:26.648Z,15.70
2023-01-29T14:56:03.269Z,13.68
2023-01-29T14:58:45.540Z,10.98
2023-01-29T15:01:38.702Z,14.48
2023-01-29T15:04:16.982Z,10.00
2023-01-29T15:06:49.658Z,13.98
2023-01-29T15:09:41.792Z,12.30
2023-01-29T15:12:30.223Z,14.35
2023-01-29T15:15:14.519Z,11.77
2023-01-29T15:17:51.299Z,11.45
2023-01-29T15:20:31.339Z,11.60
2023-01-29T15:22:59.527Z,12.57
2023-01-29T15:25:31.377Z,12.18
2023-01-29T15:27:59.287Z,11.73
2023-01-29T15:30:34.106Z,13.45
2023-01-29T15:33:03.544Z,12.77
2023-01-29T15:35:39.111Z,11.95
2023-01-29T15:38:21.990Z,16.10
2023-01-29T15:41:20.149Z,15.02
2023-01-29T15:43:57.945Z,13.20
2023-01-29T15:46:30.255Z,13.52
2023-01-29T15:49:02.380Z,14.57
2023-01-29T15:51:30.107Z,14.15
2023-01-29T15:54:04.023Z,15.35
2023-01-29T15:59:04.014Z,13.30
2023-01-29T16:01:33.057Z,11.95
2023-01-29T16:04:03.309Z,14.60
2023-01-29T16:06:37.504Z,14.15
2023-01-29T16:09:06.780Z,12.35
2023-01-29T16:11:35.950Z,12.25
2023-01-29T16:14:05.624Z,10.98
2023-01-29T16:16:33.709Z,15.52
2023-01-29T16:19:01.600Z,11.77
2023-01-29T16:21:43.914Z,11.63
2023-01-29T16:24:22.584Z,11.50
2023-01-29T16:26:53.153Z,11.63
2023-01-29T16:29:30.460Z,12.57
2023-01-29T16:32:02.312Z,10.95
2023-01-29T16:34:40.450Z,12.20
2023-01-29T16:37:22.642Z,13.18
2023-01-29T16:43:42.055Z,11.75
2023-01-29T16:46:24.455Z,11.18
2023-01-29T16:48:52.803Z,10.98
2023-01-29T16:51:25.558Z,15.95
2023-01-29T16:53:57.180Z,16.40
2023-01-29T16:56:26.818Z,12.63
2023-01-29T16:58:55.805Z,11.43
2023-01-29T17:01:26.219Z,12.68
2023-01-29T17:04:08.399Z,14.57
2023-01-29T17:06:36.427Z,13.38
2023-01-29T17:09:05.672Z,11.98
2023-01-29T17:11:41.892Z,13.18
2023-01-29T17:14:11.549Z,11.90
2023-01-29T17:16:53.385Z,11.30
2023-01-29T17:19:21.867Z,11.25
2023-01-29T17:21:49.767Z,12.93
2023-01-29T17:24:17.343Z,13.25
2023-01-29T17:27:32.418Z,13.18
2023-01-29T17:30:00.393Z,12.00
2023-01-29T17:32:48.590Z,14.32
2023-01-29T17:35:17.827Z,10.80
2023-01-29T17:41:13.262Z,12.68
2023-01-29T17:43:40.863Z,13.75
2023-01-29T17:46:14.376Z,11.93
2023-01-29T17:48:42.725Z,11.43
2023-01-29T17:51:14.098Z,13.45
2023-01-29T17:53:46.860Z,13.50
2023-01-29T17:56:47.548Z,14.32
2023-01-29T17:59:34.133Z,13.55
2023-01-29T18:02:02.058Z,12.50
2023-01-29T18:04:29.754Z,11.48
2023-01-29T18:06:58.370Z,12.05
2023-01-29T18:09:55.024Z,12.50
2023-01-29T18:12:31.200Z,9.80
2023-01-29T18:15:17.176Z,11.00
2023-01-29T18:17:55.690Z,12.40
2023-01-29T18:20:28.177Z,10.77
2023-01-29T18:22:55.812Z,11.60
2023-01-29T18:25:24.908Z,10.95
2023-01-29T18:27:53.270Z,9.75
2023-01-29T18:30:24.231Z,10.55
2023-01-29T18:32:53.544Z,10.32
2023-01-29T18:35:21.994Z,10.25
2023-01-29T18:37:49.697Z,11.07
2023-01-29T18:40:17.753Z,9.02
2023-01-29T18:42:46.526Z,9.85
2023-01-29T18:45:15.775Z,10.18
2023-01-29T18:47:43.722Z,11.70
2023-01-29T18:50:12.420Z,9.80
2023-01-29T18:52:41.145Z,8.60
2023-01-29T18:55:10.152Z,8.43
2023-01-29T18:58:28.443Z,10.20
2023-01-29T19:00:27.105Z,9.48
2023-01-29T19:02:54.594Z,8.90
2023-01-29T19:05:24.067Z,10.18
2023-01-29T19:07:52.610Z,7.07
2023-01-29T19:10:20.419Z,7.47
2023-01-29T19:12:48.025Z,9.75
2023-01-29T19:15:20.775Z,6.97
2023-01-29T19:17:48.516Z,9.20
2023-01-29T19:20:16.392Z,8.85
2023-01-29T19:22:44.151Z,8.57
2023-01-29T19:25:11.712Z,6.97
2023-01-29T19:27:40.317Z,8.57
2023-01-29T19:30:08.973Z,8.43
2023-01-29T19:32:36.787Z,7.22
2023-01-29T19:35:04.461Z,6.50
2023-01-29T19:37:32.204Z,7.70
2023-01-29T19:39:59.807Z,8.52
2023-01-29T19:42:28.230Z,8.63
2023-01-29T19:44:55.779Z,8.57
2023-01-29T19:47:23.550Z,8.80
2023-01-29T19:49:51.122Z,6.07
2023-01-29T19:52:52.278Z,6.70
2023-01-29T19:55:21.309Z,8.45
2023-01-29T19:57:49.499Z,6.50
2023-01-29T20:00:18.420Z,7.75
2023-01-29T20:02:46.221Z,8.40
2023-01-29T20:05:17.771Z,7.50
2023-01-29T20:07:45.654Z,6.15
2023-01-29T20:10:17.892Z,8.20
2023-01-29T20:12:46.570Z,5.65
2023-01-29T20:15:14.772Z,6.53
2023-01-29T20:17:42.493Z,6.20
2023-01-29T20:20:10.774Z,6.30
2023-01-29T20:22:38.354Z,6.95
2023-01-29T20:25:06.349Z,6.18
2023-01-29T20:27:33.864Z,7.25
2023-01-29T20:30:01.440Z,6.10
2023-01-29T20:32:33.090Z,6.85
2023-01-29T20:35:00.641Z,5.45
2023-01-29T20:37:28.299Z,5.97
2023-01-29T20:39:55.884Z,6.28
2023-01-29T20:42:23.351Z,6.13
2023-01-29T20:44:50.802Z,7.50
2023-01-29T20:47:18.318Z,5.60
2023-01-29T20:49:45.876Z,5.20
2023-01-29T20:52:13.387Z,6.15
2023-01-29T20:54:41.031Z,6.32
2023-01-29T20:57:08.671Z,4.85
2023-01-29T20:59:36.183Z,5.03
2023-01-29T21:02:03.736Z,4.65
2023-01-29T21:04:32.293Z,5.20
2023-01-29T21:06:59.814Z,4.93
2023-01-29T21:09:27.322Z,4.35
2023-01-29T21:11:54.904Z,6.28
2023-01-29T21:14:22.336Z,5.13
2023-01-29T21:16:49.966Z,6.57
2023-01-29T21:19:17.558Z,4.53
2023-01-29T21:21:45.041Z,4.18
2023-01-29T21:24:13.329Z,4.45
2023-01-29T21:26:41.275Z,5.15
2023-01-29T21:29:11.425Z,3.75
2023-01-29T21:31:39.348Z,6.70
2023-01-29T21:34:07.122Z,5.45
2023-01-29T21:36:35.804Z,5.15
2023-01-29T21:39:16.778Z,5.18
2023-01-29T21:42:03.878Z,5.13
2023-01-29T21:44:33.019Z,5.40
2023-01-29T21:47:01.481Z,4.90
2023-01-29T21:49:29.007Z,4.30
2023-01-29T21:51:56.720Z,4.88
2023-01-29T21:54:24.263Z,4.75
2023-01-29T21:56:51.707Z,4.47
2023-01-29T21:59:20.311Z,6.00
2023-01-29T22:01:47.767Z,5.65
2023-01-29T22:04:16.080Z,5.35
2023-01-29T22:06:43.600Z,5.05
2023-01-29T22:09:11.112Z,5.07
2023-01-29T22:11:40.243Z,4.68
2023-01-29T22:14:08.162Z,5.75
2023-01-29T22:16:36.080Z,5.43
2023-01-29T22:19:03.662Z,5.60
2023-01-29T22:21:31.211Z,5.32
2023-01-29T22:23:58.715Z,7.05
2023-01-29T22:26:26.212Z,4.53
2023-01-29T22:28:53.677Z,5.57
2023-01-29T22:31:21.241Z,5.57
2023-01-29T22:33:48.784Z,4.82
2023-01-29T22:36:16.838Z,6.30
2023-01-29T22:38:44.432Z,5.30
2023-01-29T22:41:12.495Z,5.78
2023-01-29T22:43:41.286Z,5.30
2023-01-29T22:46:09.205Z,3.80
2023-01-29T22:48:36.897Z,4.75
2023-01-29T22:51:11.268Z,5.97
2023-01-29T22:53:41.393Z,4.45
2023-01-29T22:56:09.711Z,6.75
2023-01-29T22:58:38.099Z,4.85
2023-01-29T23:01:05.698Z,4.53
2023-01-29T23:03:33.783Z,5.32
2023-01-29T23:06:01.763Z,6.07
2023-01-29T23:08:29.329Z,3.97
2023-01-29T23:11:14.538Z,4.57
2023-01-29T23:13:48.158Z,3.65
2023-01-29T23:16:16.857Z,4.25
2023-01-29T23:18:45.247Z,4.32
2023-01-29T23:21:12.899Z,5.03
2023-01-29T23:23:40.505Z,3.97
2023-01-29T23:26:28.895Z,4.40
2023-01-29T23:28:56.638Z,4.32
2023-01-29T23:31:24.593Z,5.22
2023-01-29T23:33:52.330Z,4.82
2023-01-29T23:36:19.837Z,5.95
2023-01-29T23:38:47.467Z,5.05
2023-01-29T23:41:15.030Z,4.03
2023-01-29T23:43:42.560Z,5.15
2023-01-29T23:46:10.151Z,3.05
2023-01-29T23:48:37.664Z,3.22
2023-01-29T23:51:05.249Z,3.30
2023-01-29T23:53:32.720Z,3.30
2023-01-29T23:56:03.030Z,4.50
2023-01-29T23:58:31.776Z,4.30
